• Join FlightAware (Why Join?)
  • Login
  • US Flag 
11:26AM EDT


 

Airport Tracker/Info


-or-


 

Live Flight TrackerFlight Track Log ✈ TAM3023 ✈ 19-Jun-2013 ✈ SBBR / BSB - SBRJ / SDU

Flight Track Log - Related Links

Times and Time Zones

All times are in EDT time to prevent confusion due to time zone crossing. See the TAM3023 flight status page for this flight to view local times or setup timezone preferences in your user account.

Time Position Orientation Groundspeed Altitude Reporting Facility
EDT Latitude Longitude Course Direction KTS MPH feet Rate Location/Type
06:56AM -15.8690 -47.9190 210° Southwest 11 13  Level FlightAware
06:57AM -15.8680 -47.9190 360° North 300 Level FlightAware
06:58AM -15.8690 -47.9190 180° South 12 14 360 Level FlightAware
06:59AM -15.8690 -47.9180 90° East 10 12 360 Level FlightAware
07:00AM -15.8690 -47.9170 90° East 25 29 420 Level FlightAware
07:02AM -16.0441 -47.8043 148° Southeast  Level Estimated
07:03AM -16.1339 -47.7465 148° Southeast  Level Estimated
07:04AM -16.2236 -47.6885 148° Southeast  Level Estimated
07:04AM -15.8780 -47.9290 148° Southeast 31 36  Level FlightAware
07:04AM -15.8780 -47.9320 270° West 23 26 900 Level FlightAware
07:07AM -16.0619 -47.8131 148° Southeast  Level Estimated
07:08AM -16.1515 -47.7551 148° Southeast  Level Estimated
07:08AM -15.8780 -47.9000 148° Southeast 157 181 4,100  Level FlightAware
07:09AM -16.2412 -47.6970 148° Southeast  Level Estimated
07:09AM -15.8770 -47.8790 87° East 177 204 5,000  Level FlightAware
07:09AM -15.8920 -47.8550 123° Southeast 229 264 5,800 1,920 Climbing FlightAware
07:10AM -15.9350 -47.8360 157° South 282 325 7,300 2,760 Climbing FlightAware
07:11AM -15.9680 -47.8230 159° South 285 328 8,900 1,680 Climbing FlightAware
07:11AM -15.9780 -47.8190 159° South 284 327 9,300 1,740 Climbing FlightAware
07:12AM -16.0850 -47.7770 159° South 344 396 11,500 2,700 Climbing FlightAware
07:13AM -16.1570 -47.7470 158° South 357 411 13,800 2,760 Climbing FlightAware
07:14AM -16.2320 -47.7170 159° South 366 421 16,000 2,880 Climbing FlightAware
07:14AM -16.3190 -47.6810 158° South 367 422 18,600 1,440 Climbing FlightAware
07:15AM -16.3850 -47.6530 158° South 367 422 18,600 2,100 Level FlightAware
07:16AM -16.4780 -47.6170 160° South 390 449 22,000 2,520 Climbing FlightAware
07:17AM -16.5600 -47.5820 158° South 398 458 22,800 420 Climbing FlightAware
07:18AM -16.6300 -47.5530 158° South 398 458 22,800  Level FlightAware
07:18AM -16.6870 -47.5290 158° South 398 458 22,800  Level FlightAware
07:19AM -16.7580 -47.4990 158° South 398 458 22,800  Level FlightAware
07:20AM -16.8100 -47.4770 158° South 398 458 22,800 5,820 Level FlightAware
07:21AM -16.9340 -47.3740 142° Southeast 429 494 30,300 5,040 Climbing FlightAware
07:21AM -17.0030 -47.3310 149° Southeast 429 494 30,300  Level FlightAware
07:22AM -17.0570 -47.2970 149° Southeast 429 494 30,300 2,520 Level FlightAware
07:23AM -17.1560 -47.2380 150° Southeast 433 498 33,600 3,060 Climbing FlightAware
07:23AM -17.2320 -47.1910 149° Southeast 431 496 34,700 780 Climbing FlightAware
07:24AM -17.2930 -47.1520 149° Southeast 431 496 34,800 60 Climbing FlightAware
07:25AM -17.3460 -47.1180 149° Southeast 431 496 34,800 2,040 Level FlightAware
07:26AM -17.4520 -47.0550 150° Southeast 425 489 37,700 2,580 Climbing FlightAware
07:26AM -17.5160 -47.0150 149° Southeast 420 483 38,600 900 Climbing FlightAware
07:27AM -17.5870 -46.9700 149° Southeast 419 482 39,000 240 Climbing FlightAware
07:28AM -17.6550 -46.9280 150° Southeast 417 480 39,000  Level FlightAware
07:28AM -17.7310 -46.8810 150° Southeast 421 484 39,000  Level FlightAware
07:29AM -17.8040 -46.8350 149° Southeast 424 488 39,000  Level FlightAware
07:30AM -17.8690 -46.7950 150° Southeast 425 489 39,000  Level FlightAware
07:30AM -17.9360 -46.7530 149° Southeast 426 490 39,000  Level FlightAware
07:31AM -17.9880 -46.7200 149° Southeast 426 490 39,000  Level FlightAware
07:32AM -18.0580 -46.6750 149° Southeast 426 490 39,000  Level FlightAware
07:32AM -18.1110 -46.6420 149° Southeast 426 490 39,000  Level FlightAware
07:33AM -18.1790 -46.5990 149° Southeast 426 490 39,000  Level FlightAware
07:34AM -18.2350 -46.5640 149° Southeast 426 490 39,000  Level FlightAware
07:34AM -18.2860 -46.5310 148° Southeast 426 490 39,000  Level FlightAware
07:36AM -18.4690 -46.4180 150° Southeast 419 482 39,000  Level FlightAware
07:36AM -18.5430 -46.3720 149° Southeast 39,000  Level FlightAware
07:37AM -18.5890 -46.3430 149° Southeast 414 476 39,000  Level FlightAware
07:38AM -18.6400 -46.3110 149° Southeast 415 478 39,000  Level FlightAware
07:38AM -18.7400 -46.2480 149° Southeast 414 476 39,000  Level FlightAware
07:39AM -18.8000 -46.2100 149° Southeast 416 479 39,000  Level FlightAware
07:41AM -18.9920 -46.0890 149° Southeast 418 481 39,000  Level FlightAware
07:42AM -19.1010 -46.0200 149° Southeast 421 484 39,000  Level FlightAware
07:43AM -19.1740 -45.9740 149° Southeast 421 484 39,000  Level FlightAware
07:43AM -19.2450 -45.9300 150° Southeast 419 482 39,000  Level FlightAware
07:44AM -19.3110 -45.8900 150° Southeast 419 482 39,000  Level FlightAware
07:45AM -19.3840 -45.8460 150° Southeast 418 481 39,000  Level FlightAware
07:45AM -19.4330 -45.8170 151° Southeast 417 480 39,000  Level FlightAware
07:46AM -19.5240 -45.7620 150° Southeast 417 480 39,000  Level FlightAware
07:47AM -19.5820 -45.7260 150° Southeast 417 480 39,000  Level FlightAware
07:48AM -19.6540 -45.6820 150° Southeast 417 480 39,000  Level FlightAware
07:49AM -19.7230 -45.6400 150° Southeast 417 480 39,000  Level FlightAware
07:49AM -19.7750 -45.6080 150° Southeast 417 480 39,000  Level FlightAware
07:50AM -19.8420 -45.5670 150° Southeast 417 480 39,000  Level FlightAware
07:51AM -19.9090 -45.5260 150° Southeast 417 480 39,000  Level FlightAware
07:51AM -19.9600 -45.4950 150° Southeast 417 480 39,000  Level FlightAware
07:52AM -20.0170 -45.4600 150° Southeast 417 480 39,000  Level FlightAware
07:53AM -20.0830 -45.4190 150° Southeast 417 480 39,000  Level FlightAware
07:54AM -20.1490 -45.3790 150° Southeast 417 480 39,000  Level FlightAware
07:54AM -20.2030 -45.3450 149° Southeast 417 480 39,000  Level FlightAware
07:55AM -20.2570 -45.3120 150° Southeast 417 480 39,000  Level FlightAware
07:56AM -20.3200 -45.2730 150° Southeast 417 480 39,000  Level FlightAware
07:58AM -20.4689 -45.1543 143° Southeast  Level Estimated
07:58AM -20.6650 -44.9840 143° Southeast 410 472 39,000  Level FlightAware
07:59AM -20.7280 -44.9490 153° Southeast 416 479 39,000  Level FlightAware
07:59AM -20.8100 -44.9030 152° Southeast 419 482 39,000  Level FlightAware
08:00AM -20.8720 -44.8690 153° Southeast 420 483 39,000  Level FlightAware
08:01AM -20.9360 -44.8330 152° Southeast 419 482 39,000  Level FlightAware
08:01AM -21.0060 -44.7930 152° Southeast 419 482 39,000  Level FlightAware
08:03AM -21.1120 -44.7330 152° Southeast 419 482 39,000  Level FlightAware
08:03AM -21.1680 -44.7010 152° Southeast 419 482 39,000 -360 Level FlightAware
08:04AM -21.2980 -44.6070 146° Southeast 411 473 38,500 -780 Descending FlightAware
08:05AM -21.3740 -44.5560 148° Southeast 404 465 37,700 -1,020 Descending FlightAware
08:06AM -21.4390 -44.5130 148° Southeast 405 466 37,100 -960 Descending FlightAware
08:06AM -21.5060 -44.4680 148° Southeast 420 483 36,400 -1,020 Descending FlightAware
08:07AM -21.5760 -44.4220 149° Southeast 418 481 35,700 -1,260 Descending FlightAware
08:08AM -21.6720 -44.3590 149° Southeast 422 486 34,500 -1,800 Descending FlightAware
08:09AM -21.7610 -44.3000 148° Southeast 415 478 32,500 -2,220 Descending FlightAware
08:10AM -21.8290 -44.2550 148° Southeast 414 476 31,000 -1,560 Descending FlightAware
08:10AM -21.9050 -44.2050 149° Southeast 412 474 30,200 -480 Descending FlightAware
08:11AM -21.9800 -44.1540 148° Southeast 412 474 30,200 -1,920 Level FlightAware
08:12AM -22.0570 -44.1040 149° Southeast 402 463 27,000 -3,000 Descending FlightAware
08:13AM -22.1170 -44.0650 149° Southeast 25,000 -2,460 Descending FlightAware
08:14AM -22.2000 -44.0100 148° Southeast 384 442 23,300 -2,160 Descending FlightAware
08:14AM -22.2790 -43.9570 148° Southeast 380 437 21,600 -2,100 Descending FlightAware
08:15AM -22.3470 -43.9120 149° Southeast 378 435 20,200 -1,920 Descending FlightAware
08:16AM -22.4070 -43.8710 148° Southeast 375 432 18,900 -1,980 Descending FlightAware
08:16AM -22.4680 -43.8340 151° Southeast 366 421 17,600 -1,920 Descending FlightAware
08:17AM -22.5380 -43.8020 157° South 357 411 16,200 -1,800 Descending FlightAware
08:18AM -22.6030 -43.7730 158° South 348 400 14,900 -1,500 Descending FlightAware
08:19AM -22.6610 -43.7460 157° South 332 382 14,100 -1,080 Descending FlightAware
08:19AM -22.7100 -43.7240 158° South 316 364 13,500 -1,320 Descending FlightAware
08:21AM -22.7920 -43.6610 145° Southeast 318 366 11,500 -1,860 Descending FlightAware
08:21AM -22.8420 -43.6020 133° Southeast 306 352 10,100 -2,280 Descending FlightAware
08:21AM -22.8620 -43.5800 135° Southeast 302 348 9,400 -2,160 Descending FlightAware
08:22AM -22.8860 -43.5520 133° Southeast 298 343 8,500 -1,920 Descending FlightAware
08:22AM -22.9100 -43.5250 134° Southeast 298 343 7,800 -1,200 Descending FlightAware
08:23AM -22.9340 -43.4940 130° Southeast 271 312 7,400 -960 Descending FlightAware
08:23AM -22.9390 -43.4740 105° East 256 295 7,100 -840 Descending FlightAware
08:24AM -22.9250 -43.4410 65° Northeast 226 260 6,800 -900 Descending FlightAware
08:24AM -22.9140 -43.4190 62° Northeast 206 237 6,300 -1,020 Descending FlightAware
08:25AM -22.8960 -43.3800 63° Northeast 207 238 5,600 -1,860 Descending FlightAware
08:25AM -22.8840 -43.3550 62° Northeast 191 220 4,100 -2,700 Descending FlightAware
08:26AM -22.8830 -43.3280 88° East 187 215 3,200 -1,560 Descending FlightAware
08:26AM -22.8840 -43.3120 94° East 190 219 2,900 -600 Descending FlightAware
08:27AM -22.8850 -43.2860 92° East 175 201 2,700 -600 Descending FlightAware
08:27AM -22.8860 -43.2640 93° East 160 184 2,400 -960 Descending FlightAware
08:27AM -22.8910 -43.2550 121° Southeast 155 178 2,200 -900 Descending FlightAware
08:27AM -22.8970 -43.2450 123° Southeast 153 176 2,000 -780 Descending FlightAware
08:28AM -22.9050 -43.2310 122° Southeast 135 155 1,700 -720 Descending FlightAware
08:28AM -22.9140 -43.2160 123° Southeast 127 146 1,400 -540 Descending FlightAware
08:29AM -22.9260 -43.2020 133° Southeast 128 147 1,200 -420 Descending FlightAware
08:29AM -22.9350 -43.1950 144° Southeast 127 146 1,100 -600 Descending FlightAware
08:29AM -22.9460 -43.1860 143° Southeast 124 143 800 -780 Descending FlightAware
08:29AM -22.9480 -43.1820 119° Southeast 116 133 700 -720 Descending FlightAware
08:30AM -22.9400 -43.1630 65° Northeast 123 142 300 -660 Descending FlightAware
08:30AM -22.9340 -43.1610 17° North 122 140 200 -540 Descending FlightAware
08:33AM -22.9105 -43.1631 355° North  Level Estimated
08:34AM -22.9105 -43.1631 250° West  Level Estimated
08:35AM -22.9105 -43.1631 250° West  Level Estimated
08:36AM -22.9105 -43.1631 250° West  Level Estimated
08:37AM -22.9105 -43.1631 250° West  Level Estimated
08:38AM -22.9105 -43.1631 250° West  Level Estimated
08:39AM -22.9105 -43.1631 250° West  Level Estimated
08:40AM -22.9105 -43.1631 250° West  Level Estimated
08:41AM -22.9105 -43.1631 250° West  Level Estimated
08:42AM -22.9105 -43.1631 250° West  Level Estimated
08:43AM -22.9105 -43.1631 250° West  Level Estimated
08:44AM -22.9105 -43.1631 250° West  Level Estimated
08:45AM -22.9105 -43.1631 250° West  Level Estimated
08:46AM -22.9105 -43.1631 250° West  Level Estimated
08:47AM -22.9105 -43.1631 250° West  Level Estimated
08:48AM -22.9105 -43.1631 250° West  Level Estimated